sensor_id;sensor_type;location;lat;lon;timestamp;P1;durP1;ratioP1;P2;durP2;ratioP2
36839;SDS011;24406;51.640;9.566;2022-08-27T00:00:17;14.00;;;12.60;;
36839;SDS011;24406;51.640;9.566;2022-08-27T00:05:19;13.77;;;12.43;;
36839;SDS011;24406;51.640;9.566;2022-08-27T00:10:24;15.32;;;13.90;;
36839;SDS011;24406;51.640;9.566;2022-08-27T00:15:28;17.63;;;14.65;;
36839;SDS011;24406;51.640;9.566;2022-08-27T00:20:30;17.42;;;15.70;;
36839;SDS011;24406;51.640;9.566;2022-08-27T00:25:32;17.95;;;15.07;;
36839;SDS011;24406;51.640;9.566;2022-08-27T00:30:34;17.05;;;15.43;;
36839;SDS011;24406;51.640;9.566;2022-08-27T00:35:35;19.75;;;16.85;;
36839;SDS011;24406;51.640;9.566;2022-08-27T00:40:39;14.57;;;13.23;;
36839;SDS011;24406;51.640;9.566;2022-08-27T00:45:42;21.70;;;16.80;;
36839;SDS011;24406;51.640;9.566;2022-08-27T00:50:46;19.98;;;16.63;;
36839;SDS011;24406;51.640;9.566;2022-08-27T00:55:51;24.25;;;17.42;;
36839;SDS011;24406;51.640;9.566;2022-08-27T01:00:55;22.60;;;17.25;;
36839;SDS011;24406;51.640;9.566;2022-08-27T01:05:58;22.98;;;17.85;;
36839;SDS011;24406;51.640;9.566;2022-08-27T01:11:02;27.95;;;17.20;;
36839;SDS011;24406;51.640;9.566;2022-08-27T01:16:04;24.50;;;17.75;;
36839;SDS011;24406;51.640;9.566;2022-08-27T01:21:09;26.73;;;17.42;;
36839;SDS011;24406;51.640;9.566;2022-08-27T01:26:14;28.55;;;17.40;;
36839;SDS011;24406;51.640;9.566;2022-08-27T01:31:16;26.27;;;19.98;;
36839;SDS011;24406;51.640;9.566;2022-08-27T01:36:17;30.17;;;19.45;;
36839;SDS011;24406;51.640;9.566;2022-08-27T01:41:20;22.45;;;20.05;;
36839;SDS011;24406;51.640;9.566;2022-08-27T01:46:22;25.02;;;19.65;;
36839;SDS011;24406;51.640;9.566;2022-08-27T01:51:25;29.50;;;19.02;;
36839;SDS011;24406;51.640;9.566;2022-08-27T01:56:27;29.45;;;19.70;;
36839;SDS011;24406;51.640;9.566;2022-08-27T02:01:29;30.95;;;20.90;;
36839;SDS011;24406;51.640;9.566;2022-08-27T02:06:30;29.73;;;21.30;;
36839;SDS011;24406;51.640;9.566;2022-08-27T02:11:33;33.20;;;20.33;;
36839;SDS011;24406;51.640;9.566;2022-08-27T02:16:35;37.13;;;23.15;;
36839;SDS011;24406;51.640;9.566;2022-08-27T02:21:36;39.65;;;22.27;;
36839;SDS011;24406;51.640;9.566;2022-08-27T02:26:39;33.38;;;22.13;;
36839;SDS011;24406;51.640;9.566;2022-08-27T02:31:41;31.65;;;21.75;;
36839;SDS011;24406;51.640;9.566;2022-08-27T02:36:42;33.53;;;23.20;;
36839;SDS011;24406;51.640;9.566;2022-08-27T02:41:45;29.20;;;22.55;;
36839;SDS011;24406;51.640;9.566;2022-08-27T02:46:47;30.05;;;22.15;;
36839;SDS011;24406;51.640;9.566;2022-08-27T02:51:51;33.70;;;22.00;;
36839;SDS011;24406;51.640;9.566;2022-08-27T02:56:54;24.92;;;20.17;;
36839;SDS011;24406;51.640;9.566;2022-08-27T03:01:55;27.40;;;20.83;;
36839;SDS011;24406;51.640;9.566;2022-08-27T03:06:57;23.98;;;18.38;;
36839;SDS011;24406;51.640;9.566;2022-08-27T03:12:00;23.65;;;19.83;;
36839;SDS011;24406;51.640;9.566;2022-08-27T03:17:02;31.05;;;19.85;;
36839;SDS011;24406;51.640;9.566;2022-08-27T03:22:18;24.17;;;18.02;;
36839;SDS011;24406;51.640;9.566;2022-08-27T03:27:20;30.00;;;18.27;;
36839;SDS011;24406;51.640;9.566;2022-08-27T03:32:22;27.08;;;18.48;;
36839;SDS011;24406;51.640;9.566;2022-08-27T03:37:23;24.15;;;16.98;;
36839;SDS011;24406;51.640;9.566;2022-08-27T03:42:26;23.02;;;16.23;;
36839;SDS011;24406;51.640;9.566;2022-08-27T03:47:27;18.60;;;15.13;;
36839;SDS011;24406;51.640;9.566;2022-08-27T03:52:29;26.17;;;16.23;;
36839;SDS011;24406;51.640;9.566;2022-08-27T03:57:32;18.40;;;14.85;;
36839;SDS011;24406;51.640;9.566;2022-08-27T04:02:33;20.95;;;14.60;;
36839;SDS011;24406;51.640;9.566;2022-08-27T04:07:35;24.23;;;15.10;;
36839;SDS011;24406;51.640;9.566;2022-08-27T04:12:38;22.85;;;14.20;;
36839;SDS011;24406;51.640;9.566;2022-08-27T04:17:40;18.02;;;13.65;;
36839;SDS011;24406;51.640;9.566;2022-08-27T04:22:42;17.60;;;15.15;;
36839;SDS011;24406;51.640;9.566;2022-08-27T04:27:44;20.35;;;13.50;;
36839;SDS011;24406;51.640;9.566;2022-08-27T04:32:46;19.17;;;14.35;;
36839;SDS011;24406;51.640;9.566;2022-08-27T04:37:47;20.45;;;15.10;;
36839;SDS011;24406;51.640;9.566;2022-08-27T04:42:52;15.45;;;11.98;;
36839;SDS011;24406;51.640;9.566;2022-08-27T04:47:53;17.05;;;12.23;;
36839;SDS011;24406;51.640;9.566;2022-08-27T04:52:54;11.68;;;10.55;;
36839;SDS011;24406;51.640;9.566;2022-08-27T04:57:57;11.77;;;10.45;;
36839;SDS011;24406;51.640;9.566;2022-08-27T05:02:59;9.95;;;8.95;;
36839;SDS011;24406;51.640;9.566;2022-08-27T05:08:01;9.45;;;8.35;;
36839;SDS011;24406;51.640;9.566;2022-08-27T05:13:04;10.82;;;7.93;;
36839;SDS011;24406;51.640;9.566;2022-08-27T05:18:06;8.55;;;7.68;;
36839;SDS011;24406;51.640;9.566;2022-08-27T05:23:08;9.70;;;8.80;;
36839;SDS011;24406;51.640;9.566;2022-08-27T05:28:11;12.35;;;9.48;;
36839;SDS011;24406;51.640;9.566;2022-08-27T05:33:14;11.57;;;9.55;;
36839;SDS011;24406;51.640;9.566;2022-08-27T05:38:17;13.85;;;11.00;;
36839;SDS011;24406;51.640;9.566;2022-08-27T05:43:21;15.63;;;11.30;;
36839;SDS011;24406;51.640;9.566;2022-08-27T05:48:22;16.52;;;10.48;;
36839;SDS011;24406;51.640;9.566;2022-08-27T05:53:23;13.43;;;9.55;;
36839;SDS011;24406;51.640;9.566;2022-08-27T05:58:26;12.15;;;10.27;;
36839;SDS011;24406;51.640;9.566;2022-08-27T06:03:45;12.23;;;10.73;;
36839;SDS011;24406;51.640;9.566;2022-08-27T06:08:47;15.15;;;11.52;;
36839;SDS011;24406;51.640;9.566;2022-08-27T06:13:50;14.23;;;11.25;;
36839;SDS011;24406;51.640;9.566;2022-08-27T06:18:52;18.50;;;10.95;;
36839;SDS011;24406;51.640;9.566;2022-08-27T06:23:55;21.85;;;12.02;;
36839;SDS011;24406;51.640;9.566;2022-08-27T06:29:01;15.13;;;10.15;;
36839;SDS011;24406;51.640;9.566;2022-08-27T06:34:04;16.50;;;10.70;;
36839;SDS011;24406;51.640;9.566;2022-08-27T06:39:07;13.80;;;10.88;;
36839;SDS011;24406;51.640;9.566;2022-08-27T06:44:13;21.60;;;11.27;;
36839;SDS011;24406;51.640;9.566;2022-08-27T06:49:15;16.67;;;11.07;;
36839;SDS011;24406;51.640;9.566;2022-08-27T06:54:16;13.07;;;10.45;;
36839;SDS011;24406;51.640;9.566;2022-08-27T06:59:20;17.27;;;9.90;;
36839;SDS011;24406;51.640;9.566;2022-08-27T07:04:22;17.98;;;10.60;;
36839;SDS011;24406;51.640;9.566;2022-08-27T07:09:25;14.05;;;9.73;;
36839;SDS011;24406;51.640;9.566;2022-08-27T07:14:31;15.00;;;11.07;;
36839;SDS011;24406;51.640;9.566;2022-08-27T07:19:34;18.48;;;10.88;;
36839;SDS011;24406;51.640;9.566;2022-08-27T07:24:37;14.80;;;10.50;;
36839;SDS011;24406;51.640;9.566;2022-08-27T07:29:40;20.88;;;12.43;;
36839;SDS011;24406;51.640;9.566;2022-08-27T07:34:41;14.65;;;11.27;;
36839;SDS011;24406;51.640;9.566;2022-08-27T07:39:43;16.23;;;10.27;;
36839;SDS011;24406;51.640;9.566;2022-08-27T07:44:46;17.20;;;10.20;;
36839;SDS011;24406;51.640;9.566;2022-08-27T07:49:47;15.20;;;9.38;;
36839;SDS011;24406;51.640;9.566;2022-08-27T07:54:49;20.83;;;10.23;;
36839;SDS011;24406;51.640;9.566;2022-08-27T07:59:52;15.25;;;10.52;;
36839;SDS011;24406;51.640;9.566;2022-08-27T08:04:53;14.70;;;9.05;;
36839;SDS011;24406;51.640;9.566;2022-08-27T08:09:56;16.80;;;10.43;;
36839;SDS011;24406;51.640;9.566;2022-08-27T08:14:59;12.40;;;8.32;;
36839;SDS011;24406;51.640;9.566;2022-08-27T08:20:02;16.00;;;8.05;;
36839;SDS011;24406;51.640;9.566;2022-08-27T08:25:06;13.50;;;8.98;;
36839;SDS011;24406;51.640;9.566;2022-08-27T08:30:10;13.23;;;8.73;;
36839;SDS011;24406;51.640;9.566;2022-08-27T08:35:12;12.45;;;8.55;;
36839;SDS011;24406;51.640;9.566;2022-08-27T08:40:17;13.05;;;8.80;;
36839;SDS011;24406;51.640;9.566;2022-08-27T08:45:31;16.35;;;9.57;;
36839;SDS011;24406;51.640;9.566;2022-08-27T08:50:35;18.90;;;11.52;;
36839;SDS011;24406;51.640;9.566;2022-08-27T08:55:40;15.75;;;10.40;;
36839;SDS011;24406;51.640;9.566;2022-08-27T09:00:47;16.92;;;9.80;;
36839;SDS011;24406;51.640;9.566;2022-08-27T09:05:53;16.33;;;8.90;;
36839;SDS011;24406;51.640;9.566;2022-08-27T09:10:58;14.30;;;9.30;;
36839;SDS011;24406;51.640;9.566;2022-08-27T09:16:04;14.63;;;9.05;;
36839;SDS011;24406;51.640;9.566;2022-08-27T09:21:09;12.65;;;9.27;;
36839;SDS011;24406;51.640;9.566;2022-08-27T09:26:16;20.40;;;11.10;;
36839;SDS011;24406;51.640;9.566;2022-08-27T09:31:21;13.98;;;10.10;;
36839;SDS011;24406;51.640;9.566;2022-08-27T09:36:22;18.92;;;8.75;;
36839;SDS011;24406;51.640;9.566;2022-08-27T09:41:25;15.25;;;9.10;;
36839;SDS011;24406;51.640;9.566;2022-08-27T09:46:29;14.05;;;8.25;;
36839;SDS011;24406;51.640;9.566;2022-08-27T09:51:31;18.08;;;9.77;;
36839;SDS011;24406;51.640;9.566;2022-08-27T09:56:34;18.10;;;9.35;;
36839;SDS011;24406;51.640;9.566;2022-08-27T10:01:48;12.65;;;9.55;;
36839;SDS011;24406;51.640;9.566;2022-08-27T10:06:51;16.45;;;9.80;;
36839;SDS011;24406;51.640;9.566;2022-08-27T10:11:55;16.80;;;9.95;;
36839;SDS011;24406;51.640;9.566;2022-08-27T10:17:05;14.70;;;8.85;;
36839;SDS011;24406;51.640;9.566;2022-08-27T10:22:15;14.00;;;9.07;;
36839;SDS011;24406;51.640;9.566;2022-08-27T10:27:24;13.80;;;8.48;;
36839;SDS011;24406;51.640;9.566;2022-08-27T10:32:34;10.63;;;7.65;;
36839;SDS011;24406;51.640;9.566;2022-08-27T10:37:45;16.33;;;8.25;;
36839;SDS011;24406;51.640;9.566;2022-08-27T10:42:52;14.48;;;8.55;;
36839;SDS011;24406;51.640;9.566;2022-08-27T10:48:02;21.02;;;13.77;;
36839;SDS011;24406;51.640;9.566;2022-08-27T10:53:07;15.23;;;7.80;;
36839;SDS011;24406;51.640;9.566;2022-08-27T10:58:15;12.05;;;7.22;;
36839;SDS011;24406;51.640;9.566;2022-08-27T11:03:26;14.00;;;8.05;;
36839;SDS011;24406;51.640;9.566;2022-08-27T11:08:33;18.63;;;10.52;;
36839;SDS011;24406;51.640;9.566;2022-08-27T11:13:40;16.10;;;6.72;;
36839;SDS011;24406;51.640;9.566;2022-08-27T11:18:47;11.68;;;6.65;;
36839;SDS011;24406;51.640;9.566;2022-08-27T11:23:52;11.73;;;7.75;;
36839;SDS011;24406;51.640;9.566;2022-08-27T11:28:56;8.82;;;6.88;;
36839;SDS011;24406;51.640;9.566;2022-08-27T11:34:00;11.70;;;5.80;;
36839;SDS011;24406;51.640;9.566;2022-08-27T11:39:04;7.90;;;6.63;;
36839;SDS011;24406;51.640;9.566;2022-08-27T11:44:15;13.43;;;6.25;;
36839;SDS011;24406;51.640;9.566;2022-08-27T11:49:23;10.63;;;5.93;;
36839;SDS011;24406;51.640;9.566;2022-08-27T11:54:27;10.75;;;5.93;;
36839;SDS011;24406;51.640;9.566;2022-08-27T11:59:31;7.97;;;5.97;;
36839;SDS011;24406;51.640;9.566;2022-08-27T12:04:36;12.23;;;6.10;;
36839;SDS011;24406;51.640;9.566;2022-08-27T12:09:44;9.00;;;6.10;;
36839;SDS011;24406;51.640;9.566;2022-08-27T12:14:55;14.68;;;6.93;;
36839;SDS011;24406;51.640;9.566;2022-08-27T12:20:05;13.38;;;6.28;;
36839;SDS011;24406;51.640;9.566;2022-08-27T12:25:11;10.52;;;7.72;;
36839;SDS011;24406;51.640;9.566;2022-08-27T12:30:21;19.63;;;12.15;;
36839;SDS011;24406;51.640;9.566;2022-08-27T12:35:27;14.85;;;9.23;;
36839;SDS011;24406;51.640;9.566;2022-08-27T12:40:37;13.63;;;9.57;;
36839;SDS011;24406;51.640;9.566;2022-08-27T12:45:41;12.05;;;7.20;;
36839;SDS011;24406;51.640;9.566;2022-08-27T12:50:49;11.60;;;6.10;;
36839;SDS011;24406;51.640;9.566;2022-08-27T12:55:54;11.50;;;6.03;;
36839;SDS011;24406;51.640;9.566;2022-08-27T13:01:05;12.38;;;5.97;;
36839;SDS011;24406;51.640;9.566;2022-08-27T13:06:19;14.13;;;6.50;;
36839;SDS011;24406;51.640;9.566;2022-08-27T13:11:23;14.25;;;5.90;;
36839;SDS011;24406;51.640;9.566;2022-08-27T13:16:26;11.98;;;6.20;;
36839;SDS011;24406;51.640;9.566;2022-08-27T13:21:30;12.55;;;6.72;;
36839;SDS011;24406;51.640;9.566;2022-08-27T13:26:36;14.88;;;5.90;;
36839;SDS011;24406;51.640;9.566;2022-08-27T13:31:39;15.13;;;6.57;;
36839;SDS011;24406;51.640;9.566;2022-08-27T13:36:50;13.05;;;6.95;;
36839;SDS011;24406;51.640;9.566;2022-08-27T13:41:56;10.68;;;6.03;;
36839;SDS011;24406;51.640;9.566;2022-08-27T13:47:00;10.38;;;6.18;;
36839;SDS011;24406;51.640;9.566;2022-08-27T13:52:05;12.20;;;6.22;;
36839;SDS011;24406;51.640;9.566;2022-08-27T13:57:10;13.35;;;6.00;;
36839;SDS011;24406;51.640;9.566;2022-08-27T14:02:19;6.15;;;5.45;;
36839;SDS011;24406;51.640;9.566;2022-08-27T14:07:27;6.65;;;5.88;;
36839;SDS011;24406;51.640;9.566;2022-08-27T14:12:32;8.40;;;6.43;;
36839;SDS011;24406;51.640;9.566;2022-08-27T14:17:36;10.25;;;6.35;;
36839;SDS011;24406;51.640;9.566;2022-08-27T14:22:39;8.95;;;5.40;;
36839;SDS011;24406;51.640;9.566;2022-08-27T14:27:41;15.13;;;7.95;;
36839;SDS011;24406;51.640;9.566;2022-08-27T14:32:43;8.63;;;6.75;;
36839;SDS011;24406;51.640;9.566;2022-08-27T14:37:46;11.57;;;6.20;;
36839;SDS011;24406;51.640;9.566;2022-08-27T14:42:48;7.45;;;6.72;;
36839;SDS011;24406;51.640;9.566;2022-08-27T14:47:49;7.78;;;6.78;;
36839;SDS011;24406;51.640;9.566;2022-08-27T14:52:52;6.72;;;5.95;;
36839;SDS011;24406;51.640;9.566;2022-08-27T14:57:54;8.95;;;5.85;;
36839;SDS011;24406;51.640;9.566;2022-08-27T15:02:55;7.38;;;5.28;;
36839;SDS011;24406;51.640;9.566;2022-08-27T15:07:58;9.57;;;6.22;;
36839;SDS011;24406;51.640;9.566;2022-08-27T15:12:59;9.80;;;6.03;;
36839;SDS011;24406;51.640;9.566;2022-08-27T15:18:01;8.75;;;5.53;;
36839;SDS011;24406;51.640;9.566;2022-08-27T15:23:03;12.95;;;5.60;;
36839;SDS011;24406;51.640;9.566;2022-08-27T15:28:05;11.05;;;6.10;;
36839;SDS011;24406;51.640;9.566;2022-08-27T15:33:06;9.98;;;4.68;;
36839;SDS011;24406;51.640;9.566;2022-08-27T15:38:09;9.32;;;4.30;;
36839;SDS011;24406;51.640;9.566;2022-08-27T15:43:10;9.27;;;4.82;;
36839;SDS011;24406;51.640;9.566;2022-08-27T15:48:12;7.30;;;4.05;;
36839;SDS011;24406;51.640;9.566;2022-08-27T15:53:23;9.80;;;4.50;;
36839;SDS011;24406;51.640;9.566;2022-08-27T15:58:25;5.35;;;3.30;;
36839;SDS011;24406;51.640;9.566;2022-08-27T16:03:26;6.93;;;3.53;;
36839;SDS011;24406;51.640;9.566;2022-08-27T16:08:31;7.43;;;3.97;;
36839;SDS011;24406;51.640;9.566;2022-08-27T16:13:33;7.82;;;3.90;;
36839;SDS011;24406;51.640;9.566;2022-08-27T16:18:34;10.70;;;3.95;;
36839;SDS011;24406;51.640;9.566;2022-08-27T16:23:37;7.50;;;3.67;;
36839;SDS011;24406;51.640;9.566;2022-08-27T16:28:39;6.40;;;3.85;;
36839;SDS011;24406;51.640;9.566;2022-08-27T16:33:40;7.90;;;4.00;;
36839;SDS011;24406;51.640;9.566;2022-08-27T16:38:44;7.18;;;3.72;;
36839;SDS011;24406;51.640;9.566;2022-08-27T16:43:45;7.93;;;3.83;;
36839;SDS011;24406;51.640;9.566;2022-08-27T16:48:47;5.65;;;3.75;;
36839;SDS011;24406;51.640;9.566;2022-08-27T16:54:08;6.50;;;3.63;;
36839;SDS011;24406;51.640;9.566;2022-08-27T16:59:10;7.82;;;3.60;;
36839;SDS011;24406;51.640;9.566;2022-08-27T17:04:12;7.43;;;3.90;;
36839;SDS011;24406;51.640;9.566;2022-08-27T17:09:15;9.88;;;4.03;;
36839;SDS011;24406;51.640;9.566;2022-08-27T17:14:16;12.43;;;3.88;;
36839;SDS011;24406;51.640;9.566;2022-08-27T17:19:17;8.35;;;3.90;;
36839;SDS011;24406;51.640;9.566;2022-08-27T17:24:22;8.20;;;3.75;;
36839;SDS011;24406;51.640;9.566;2022-08-27T17:29:23;10.52;;;4.53;;
36839;SDS011;24406;51.640;9.566;2022-08-27T17:34:25;5.07;;;3.50;;
36839;SDS011;24406;51.640;9.566;2022-08-27T17:39:29;7.80;;;4.15;;
36839;SDS011;24406;51.640;9.566;2022-08-27T17:44:31;8.52;;;4.28;;
36839;SDS011;24406;51.640;9.566;2022-08-27T17:49:34;7.93;;;3.95;;
36839;SDS011;24406;51.640;9.566;2022-08-27T17:54:38;7.68;;;3.88;;
36839;SDS011;24406;51.640;9.566;2022-08-27T17:59:41;10.05;;;4.43;;
36839;SDS011;24406;51.640;9.566;2022-08-27T18:04:43;8.55;;;3.97;;
36839;SDS011;24406;51.640;9.566;2022-08-27T18:09:46;7.60;;;4.20;;
36839;SDS011;24406;51.640;9.566;2022-08-27T18:14:51;7.80;;;4.43;;
36839;SDS011;24406;51.640;9.566;2022-08-27T18:19:54;10.82;;;4.75;;
36839;SDS011;24406;51.640;9.566;2022-08-27T18:24:57;10.57;;;3.88;;
36839;SDS011;24406;51.640;9.566;2022-08-27T18:29:59;13.45;;;4.05;;
36839;SDS011;24406;51.640;9.566;2022-08-27T18:35:02;7.95;;;3.75;;
36839;SDS011;24406;51.640;9.566;2022-08-27T18:40:16;7.22;;;3.40;;
36839;SDS011;24406;51.640;9.566;2022-08-27T18:45:20;7.18;;;4.15;;
36839;SDS011;24406;51.640;9.566;2022-08-27T18:50:23;10.00;;;3.80;;
36839;SDS011;24406;51.640;9.566;2022-08-27T18:55:27;12.23;;;4.00;;
36839;SDS011;24406;51.640;9.566;2022-08-27T19:00:28;5.88;;;3.60;;
36839;SDS011;24406;51.640;9.566;2022-08-27T19:05:29;9.43;;;4.00;;
36839;SDS011;24406;51.640;9.566;2022-08-27T19:10:32;7.35;;;3.50;;
36839;SDS011;24406;51.640;9.566;2022-08-27T19:15:33;11.20;;;4.35;;
36839;SDS011;24406;51.640;9.566;2022-08-27T19:20:35;8.05;;;3.72;;
36839;SDS011;24406;51.640;9.566;2022-08-27T19:25:38;7.18;;;4.30;;
36839;SDS011;24406;51.640;9.566;2022-08-27T19:30:39;6.47;;;3.70;;
36839;SDS011;24406;51.640;9.566;2022-08-27T19:35:41;6.07;;;3.80;;
36839;SDS011;24406;51.640;9.566;2022-08-27T19:40:44;7.53;;;4.47;;
36839;SDS011;24406;51.640;9.566;2022-08-27T19:45:45;9.80;;;4.20;;
36839;SDS011;24406;51.640;9.566;2022-08-27T19:50:47;8.95;;;4.90;;
36839;SDS011;24406;51.640;9.566;2022-08-27T19:55:50;8.93;;;4.63;;
36839;SDS011;24406;51.640;9.566;2022-08-27T20:00:51;7.10;;;4.95;;
36839;SDS011;24406;51.640;9.566;2022-08-27T20:05:53;9.65;;;4.18;;
36839;SDS011;24406;51.640;9.566;2022-08-27T20:10:55;8.23;;;3.97;;
36839;SDS011;24406;51.640;9.566;2022-08-27T20:15:57;11.13;;;4.40;;
36839;SDS011;24406;51.640;9.566;2022-08-27T20:20:58;5.88;;;4.10;;
36839;SDS011;24406;51.640;9.566;2022-08-27T20:26:01;9.88;;;5.00;;
36839;SDS011;24406;51.640;9.566;2022-08-27T20:31:02;7.47;;;4.60;;
36839;SDS011;24406;51.640;9.566;2022-08-27T20:36:05;5.13;;;4.45;;
36839;SDS011;24406;51.640;9.566;2022-08-27T20:41:08;8.02;;;4.35;;
36839;SDS011;24406;51.640;9.566;2022-08-27T20:46:09;9.13;;;4.50;;
36839;SDS011;24406;51.640;9.566;2022-08-27T20:51:11;9.35;;;4.82;;
36839;SDS011;24406;51.640;9.566;2022-08-27T20:56:14;9.05;;;4.80;;
36839;SDS011;24406;51.640;9.566;2022-08-27T21:01:15;7.50;;;4.63;;
36839;SDS011;24406;51.640;9.566;2022-08-27T21:06:17;11.75;;;4.97;;
36839;SDS011;24406;51.640;9.566;2022-08-27T21:11:21;10.55;;;4.30;;
36839;SDS011;24406;51.640;9.566;2022-08-27T21:16:23;5.65;;;4.43;;
36839;SDS011;24406;51.640;9.566;2022-08-27T21:21:24;8.75;;;4.80;;
36839;SDS011;24406;51.640;9.566;2022-08-27T21:26:27;8.10;;;4.70;;
36839;SDS011;24406;51.640;9.566;2022-08-27T21:31:29;8.73;;;4.60;;
36839;SDS011;24406;51.640;9.566;2022-08-27T21:36:30;7.55;;;4.50;;
36839;SDS011;24406;51.640;9.566;2022-08-27T21:41:33;10.05;;;4.57;;
36839;SDS011;24406;51.640;9.566;2022-08-27T21:46:36;9.80;;;4.57;;
36839;SDS011;24406;51.640;9.566;2022-08-27T21:51:37;9.05;;;4.70;;
36839;SDS011;24406;51.640;9.566;2022-08-27T21:56:40;7.63;;;3.95;;
36839;SDS011;24406;51.640;9.566;2022-08-27T22:01:41;8.45;;;4.20;;
36839;SDS011;24406;51.640;9.566;2022-08-27T22:06:42;8.05;;;4.20;;
36839;SDS011;24406;51.640;9.566;2022-08-27T22:11:45;13.95;;;4.25;;
36839;SDS011;24406;51.640;9.566;2022-08-27T22:16:47;11.65;;;4.30;;
36839;SDS011;24406;51.640;9.566;2022-08-27T22:21:49;10.75;;;4.53;;
36839;SDS011;24406;51.640;9.566;2022-08-27T22:26:51;13.23;;;4.30;;
36839;SDS011;24406;51.640;9.566;2022-08-27T22:31:53;9.57;;;4.05;;
36839;SDS011;24406;51.640;9.566;2022-08-27T22:36:54;13.57;;;4.32;;
36839;SDS011;24406;51.640;9.566;2022-08-27T22:41:57;6.25;;;2.88;;
36839;SDS011;24406;51.640;9.566;2022-08-27T22:46:58;11.13;;;4.38;;
36839;SDS011;24406;51.640;9.566;2022-08-27T22:52:00;10.10;;;2.78;;
36839;SDS011;24406;51.640;9.566;2022-08-27T22:57:03;9.98;;;2.75;;
36839;SDS011;24406;51.640;9.566;2022-08-27T23:02:05;7.97;;;2.30;;
36839;SDS011;24406;51.640;9.566;2022-08-27T23:07:08;10.02;;;2.42;;
36839;SDS011;24406;51.640;9.566;2022-08-27T23:12:11;7.45;;;2.03;;
36839;SDS011;24406;51.640;9.566;2022-08-27T23:17:12;7.80;;;2.65;;
36839;SDS011;24406;51.640;9.566;2022-08-27T23:22:15;6.22;;;2.60;;
36839;SDS011;24406;51.640;9.566;2022-08-27T23:27:17;7.95;;;2.70;;
36839;SDS011;24406;51.640;9.566;2022-08-27T23:32:31;7.80;;;2.67;;
36839;SDS011;24406;51.640;9.566;2022-08-27T23:37:32;8.60;;;2.55;;
36839;SDS011;24406;51.640;9.566;2022-08-27T23:42:36;10.70;;;2.90;;
36839;SDS011;24406;51.640;9.566;2022-08-27T23:47:37;8.15;;;2.85;;
36839;SDS011;24406;51.640;9.566;2022-08-27T23:52:38;11.38;;;3.67;;
36839;SDS011;24406;51.640;9.566;2022-08-27T23:57:41;8.52;;;3.30;;
